Overview Statistics Trail Chart Weather Telemetry Raw packets
 

This is the latest recevied weather packets stored in our database for station/object SP5MRF. If no packets are shown the sender has not sent any weather packets the latest 10 day(s).

<< 45 46 47 48 49 50 51 >>
Time Temp. Humidity Pressure Rain* Wind** Luminosity Snow
1788075415 21.67° C 70% 1012.2 hPa 0 mm - - -
1788074935 21.11° C 71% 1012.4 hPa 0 mm - - -
1788074457 20.56° C 72% 1012.4 hPa 0 mm - - -
1788073975 20° C 75% 1012.4 hPa 0 mm - - -
1788073015 19.44° C 77% 1012.4 hPa 0 mm - - -
1788072537 18.89° C 79% 1012.5 hPa 0 mm - - -
1788071575 17.22° C 84% 1012.5 hPa 0 mm - - -
1788070615 16.67° C 87% 1012.5 hPa 0 mm - - -
1788070135 16.11° C 88% 1012.4 hPa 0 mm - - -
1788069695 15.56° C 88% 1012.4 hPa 0 mm - - -
1788069655 15.56° C 88% 1012.4 hPa 0 mm - - -
1788069175 15° C 89% 1012.5 hPa 0 mm - - -
1788068697 14.44° C 89% 1012.4 hPa 0 mm - - -
1788068217 13.89° C 89% 1012.3 hPa 0 mm - - -
1788067735 13.89° C 89% 1012.5 hPa 0 mm - - -
1788067255 13.33° C 88% 1012.3 hPa 0 mm - - -
1788066776 12.78° C 88% 1012.5 hPa 0 mm - - -
1788065335 11.67° C 88% 1012.1 hPa 0 mm - - -
1788064857 11.11° C 88% 1012.2 hPa 0 mm - - -
1788064375 11.11° C 87% 1012.1 hPa 0 mm - - -
1788063897 10.56° C 87% 1012.4 hPa 0 mm - - -
1788063417 10.56° C 87% 1012.2 hPa 0 mm - - -
1788062935 10.56° C 87% 1012.1 hPa 0 mm - - -
1788062456 10.56° C 87% 1012 hPa 0 mm - - -
1788061977 10.56° C 87% 1012.3 hPa 0 mm - - -

* Rain latest hour (hover to see other rain measurements)
** Current wind speed in m/s (hover to see current wind gust speed)